createdAt,value
2022-08-11T00:01:54.468Z,9.02
2022-08-11T00:04:25.154Z,6.13
2022-08-11T00:06:53.411Z,8.07
2022-08-11T00:09:23.026Z,10.82
2022-08-11T00:11:58.688Z,6.45
2022-08-11T00:14:37.062Z,7.82
2022-08-11T00:17:10.934Z,7.93
2022-08-11T00:20:12.616Z,5.57
2022-08-11T00:22:40.496Z,6.38
2022-08-11T00:25:21.694Z,6.15
2022-08-11T00:27:49.479Z,9.57
2022-08-11T00:30:17.798Z,6.80
2022-08-11T00:32:55.346Z,11.82
2022-08-11T00:35:56.997Z,12.93
2022-08-11T00:38:16.010Z,8.20
2022-08-11T00:40:55.087Z,7.97
2022-08-11T00:43:57.231Z,5.88
2022-08-11T00:46:27.421Z,8.40
2022-08-11T00:49:12.133Z,6.57
2022-08-11T00:52:10.249Z,7.10
2022-08-11T00:54:58.573Z,7.13
2022-08-11T00:57:47.801Z,5.13
2022-08-11T01:00:43.794Z,6.40
2022-08-11T01:03:51.459Z,5.93
2022-08-11T01:06:43.148Z,11.77
2022-08-11T01:09:25.147Z,7.38
2022-08-11T01:12:29.531Z,5.00
2022-08-11T01:15:40.239Z,4.72
2022-08-11T01:18:44.819Z,9.95
2022-08-11T01:21:49.654Z,7.50
2022-08-11T01:24:45.532Z,9.18
2022-08-11T01:27:43.810Z,7.25
2022-08-11T01:30:39.264Z,5.68
2022-08-11T01:36:29.604Z,5.05
2022-08-11T01:38:59.871Z,5.55
2022-08-11T01:42:06.890Z,10.05
2022-08-11T01:44:44.066Z,6.10
2022-08-11T01:47:34.090Z,8.48
2022-08-11T01:50:10.704Z,4.97
2022-08-11T01:53:05.048Z,8.88
2022-08-11T01:55:48.810Z,7.13
2022-08-11T01:58:29.354Z,9.02
2022-08-11T02:01:38.093Z,4.63
2022-08-11T02:04:14.230Z,7.35
2022-08-11T02:06:58.508Z,8.18
2022-08-11T02:10:36.575Z,7.28
2022-08-11T02:13:36.850Z,11.38
2022-08-11T02:16:27.208Z,10.30
2022-08-11T02:19:35.963Z,8.25
2022-08-11T02:22:35.022Z,5.97
2022-08-11T02:25:07.757Z,6.43
2022-08-11T02:27:50.074Z,6.28
2022-08-11T02:30:25.075Z,7.07
2022-08-11T02:35:47.803Z,7.22
2022-08-11T02:38:21.910Z,7.03
2022-08-11T02:41:43.494Z,7.47
2022-08-11T02:44:33.843Z,6.13
2022-08-11T02:47:38.762Z,4.93
2022-08-11T02:50:17.533Z,10.60
2022-08-11T02:52:52.469Z,5.63
2022-08-11T02:55:57.057Z,4.32
2022-08-11T02:59:12.782Z,5.30
2022-08-11T03:01:48.488Z,6.03
2022-08-11T03:04:37.461Z,5.78
2022-08-11T03:07:35.029Z,5.68
2022-08-11T03:10:30.676Z,6.68
2022-08-11T03:13:47.975Z,11.10
2022-08-11T03:16:45.805Z,11.13
2022-08-11T03:19:18.547Z,9.98
2022-08-11T03:22:08.306Z,8.77
2022-08-11T03:25:04.153Z,9.65
2022-08-11T03:27:39.310Z,10.63
2022-08-11T03:33:34.571Z,12.20
2022-08-11T03:36:20.087Z,11.98
2022-08-11T03:38:52.831Z,13.18
2022-08-11T03:42:02.059Z,7.60
2022-08-11T03:44:37.776Z,13.63
2022-08-11T03:47:33.215Z,10.35
2022-08-11T03:53:06.636Z,8.00
2022-08-11T03:56:19.034Z,11.65
2022-08-11T03:59:12.517Z,11.75
2022-08-11T04:01:49.124Z,13.15
2022-08-11T04:04:19.270Z,27.65
2022-08-11T04:07:23.433Z,14.68
2022-08-11T04:10:07.848Z,7.78
2022-08-11T04:13:19.800Z,4.25
2022-08-11T04:16:12.542Z,7.60
2022-08-11T04:18:42.724Z,12.95
2022-08-11T04:21:47.278Z,9.27
2022-08-11T04:24:36.972Z,9.75
2022-08-11T04:27:43.168Z,4.22
2022-08-11T04:30:27.430Z,9.90
2022-08-11T04:33:03.203Z,10.73
2022-08-11T04:36:09.671Z,9.32
2022-08-11T04:39:08.752Z,5.70
2022-08-11T04:42:35.373Z,7.85
2022-08-11T04:46:04.516Z,10.10
2022-08-11T04:49:33.345Z,7.53
2022-08-11T04:52:37.777Z,7.13
2022-08-11T04:55:39.295Z,5.50
2022-08-11T04:58:56.096Z,8.52
2022-08-11T05:01:41.249Z,7.85
2022-08-11T05:05:30.906Z,8.07
2022-08-11T05:08:27.970Z,5.00
2022-08-11T05:11:30.316Z,6.13
2022-08-11T05:14:31.422Z,6.38
2022-08-11T05:17:31.275Z,5.95
2022-08-11T05:20:19.639Z,4.05
2022-08-11T05:23:10.631Z,3.78
2022-08-11T05:26:25.414Z,3.60
2022-08-11T05:29:21.396Z,6.57
2022-08-11T05:32:15.493Z,4.47
2022-08-11T05:37:32.895Z,5.85
2022-08-11T05:40:27.093Z,2.90
2022-08-11T05:43:24.791Z,4.32
2022-08-11T05:46:18.728Z,4.68
2022-08-11T05:49:05.853Z,4.90
2022-08-11T05:52:05.517Z,6.60
2022-08-11T05:55:06.330Z,4.25
2022-08-11T05:57:50.424Z,4.80
2022-08-11T06:00:19.996Z,5.45
2022-08-11T06:02:54.761Z,6.53
2022-08-11T06:05:37.316Z,4.55
2022-08-11T06:08:12.361Z,8.73
2022-08-11T06:10:42.274Z,4.90
2022-08-11T06:13:10.911Z,4.32
2022-08-11T06:15:49.887Z,4.38
2022-08-11T06:18:18.164Z,2.92
2022-08-11T06:20:58.234Z,4.80
2022-08-11T06:23:32.074Z,4.80
2022-08-11T06:26:00.316Z,4.07
2022-08-11T06:28:37.447Z,5.93
2022-08-11T06:31:20.240Z,5.22
2022-08-11T06:33:50.498Z,4.32
2022-08-11T06:36:31.171Z,2.78
2022-08-11T06:39:44.195Z,5.53
2022-08-11T06:42:24.605Z,4.57
2022-08-11T06:44:58.388Z,3.63
2022-08-11T06:47:26.303Z,4.68
2022-08-11T06:50:16.731Z,2.08
2022-08-11T06:52:46.903Z,3.60
2022-08-11T06:55:56.898Z,3.35
2022-08-11T06:59:06.953Z,2.72
2022-08-11T07:02:01.898Z,1.73
2022-08-11T07:04:43.230Z,3.00
2022-08-11T07:08:33.153Z,2.58
2022-08-11T07:11:43.444Z,3.83
2022-08-11T07:14:35.044Z,1.52
2022-08-11T07:17:11.214Z,3.20
2022-08-11T07:20:02.149Z,2.85
2022-08-11T07:22:51.075Z,2.58
2022-08-11T07:25:37.825Z,1.38
2022-08-11T07:28:44.339Z,6.05
2022-08-11T07:31:21.949Z,1.30
2022-08-11T07:34:05.516Z,2.28
2022-08-11T07:36:41.124Z,3.35
2022-08-11T07:39:15.790Z,4.05
2022-08-11T07:41:43.779Z,2.75
2022-08-11T07:44:11.705Z,5.20
2022-08-11T07:47:11.046Z,2.15
2022-08-11T07:49:59.118Z,4.40
2022-08-11T07:52:33.957Z,4.45
2022-08-11T07:55:05.091Z,5.35
2022-08-11T07:58:11.154Z,3.10
2022-08-11T08:01:25.008Z,1.75
2022-08-11T08:04:11.078Z,3.25
2022-08-11T08:06:57.725Z,2.97
2022-08-11T08:09:44.075Z,2.95
2022-08-11T08:12:31.559Z,6.13
2022-08-11T08:15:18.054Z,4.63
2022-08-11T08:18:09.721Z,3.00
2022-08-11T08:20:52.148Z,1.23
2022-08-11T08:23:33.758Z,2.22
2022-08-11T08:26:04.734Z,5.20
2022-08-11T08:28:33.778Z,3.45
2022-08-11T08:31:02.447Z,4.32
2022-08-11T08:33:32.141Z,2.42
2022-08-11T08:36:17.035Z,2.83
2022-08-11T08:38:51.282Z,5.07
2022-08-11T08:44:36.763Z,4.63
2022-08-11T08:46:59.961Z,2.35
2022-08-11T08:49:41.962Z,3.60
2022-08-11T08:52:26.296Z,5.57
2022-08-11T08:55:04.772Z,2.53
2022-08-11T08:57:39.223Z,2.97
2022-08-11T09:00:07.731Z,6.57
2022-08-11T09:02:37.580Z,3.10
2022-08-11T09:05:05.763Z,3.55
2022-08-11T09:07:38.524Z,2.85
2022-08-11T09:12:38.716Z,3.13
2022-08-11T09:15:10.170Z,6.35
2022-08-11T09:17:44.893Z,5.30
2022-08-11T09:20:24.717Z,3.03
2022-08-11T09:26:21.949Z,3.20
2022-08-11T09:28:59.031Z,2.70
2022-08-11T09:31:27.015Z,2.95
2022-08-11T09:33:55.591Z,2.67
2022-08-11T09:36:41.683Z,2.08
2022-08-11T09:39:30.813Z,5.03
2022-08-11T09:42:03.399Z,1.88
2022-08-11T09:44:49.528Z,4.22
2022-08-11T09:47:26.150Z,3.03
2022-08-11T09:50:00.219Z,53.15
2022-08-11T09:52:32.491Z,10.23
2022-08-11T09:55:01.192Z,4.88
2022-08-11T09:57:48.527Z,4.38
2022-08-11T10:00:16.391Z,3.67
2022-08-11T10:02:47.282Z,4.55
2022-08-11T10:05:37.832Z,1.35
2022-08-11T10:08:07.520Z,4.63
2022-08-11T10:10:39.227Z,3.42
2022-08-11T10:14:30.673Z,1.75
2022-08-11T10:16:15.295Z,3.47
2022-08-11T10:18:52.764Z,2.75
2022-08-11T10:21:36.715Z,2.10
2022-08-11T10:24:24.716Z,2.58
2022-08-11T10:26:54.935Z,1.77
2022-08-11T10:29:49.744Z,4.65
2022-08-11T10:32:52.273Z,23.60
2022-08-11T10:35:32.154Z,4.05
2022-08-11T10:38:07.729Z,1.75
2022-08-11T10:40:40.705Z,1.50
2022-08-11T10:43:17.681Z,3.70
2022-08-11T10:46:25.772Z,3.35
2022-08-11T10:48:58.818Z,1.30
2022-08-11T10:51:50.867Z,3.88
2022-08-11T10:54:41.512Z,1.17
2022-08-11T10:57:29.081Z,4.60
2022-08-11T10:59:57.917Z,4.93
2022-08-11T11:02:31.296Z,2.65
2022-08-11T11:05:09.939Z,5.35
2022-08-11T11:07:49.804Z,11.40
2022-08-11T11:10:17.196Z,2.50
2022-08-11T11:13:04.697Z,2.38
2022-08-11T11:15:54.002Z,3.17
2022-08-11T11:18:21.454Z,4.38
2022-08-11T11:21:04.601Z,2.33
2022-08-11T11:23:41.658Z,2.53
2022-08-11T11:26:56.055Z,1.50
2022-08-11T11:29:42.027Z,5.00
2022-08-11T11:32:27.700Z,2.78
2022-08-11T11:35:18.161Z,1.23
2022-08-11T11:38:03.638Z,3.40
2022-08-11T11:40:33.185Z,4.15
2022-08-11T11:43:01.192Z,1.65
2022-08-11T11:45:28.621Z,3.38
2022-08-11T11:47:58.419Z,3.60
2022-08-11T11:50:36.572Z,1.50
2022-08-11T11:53:09.878Z,8.35
2022-08-11T11:55:37.955Z,1.67
2022-08-11T11:58:24.650Z,3.28
2022-08-11T12:01:12.495Z,2.95
2022-08-11T12:03:40.701Z,2.45
2022-08-11T12:06:09.639Z,4.03
2022-08-11T12:08:37.982Z,1.95
2022-08-11T12:11:29.200Z,2.83
2022-08-11T12:14:02.188Z,1.50
2022-08-11T12:16:34.220Z,4.00
2022-08-11T12:19:13.557Z,3.60
2022-08-11T12:22:01.153Z,2.45
2022-08-11T12:24:48.954Z,2.50
2022-08-11T12:27:24.842Z,2.20
2022-08-11T12:29:59.647Z,3.10
2022-08-11T12:32:32.728Z,3.65
2022-08-11T12:35:00.548Z,2.58
2022-08-11T12:37:31.648Z,1.88
2022-08-11T12:40:43.757Z,1.35
2022-08-11T12:43:39.535Z,4.60
2022-08-11T12:46:14.263Z,1.15
2022-08-11T12:49:04.941Z,4.57
2022-08-11T12:52:11.189Z,3.33
2022-08-11T12:54:57.869Z,7.07
2022-08-11T12:57:51.326Z,4.68
2022-08-11T13:00:39.345Z,1.27
2022-08-11T13:03:28.050Z,4.82
2022-08-11T13:06:02.918Z,2.83
2022-08-11T13:08:35.880Z,1.33
2022-08-11T13:11:23.045Z,3.10
2022-08-11T13:13:57.408Z,2.83
2022-08-11T13:16:57.183Z,4.13
2022-08-11T13:19:25.171Z,5.28
2022-08-11T13:21:53.653Z,2.75
2022-08-11T13:24:22.576Z,3.30
2022-08-11T13:26:52.455Z,0.73
2022-08-11T13:29:24.410Z,4.78
2022-08-11T13:31:58.687Z,4.53
2022-08-11T13:34:28.042Z,3.28
2022-08-11T13:36:59.440Z,2.15
2022-08-11T13:39:29.074Z,2.80
2022-08-11T13:41:59.604Z,4.00
2022-08-11T13:44:30.394Z,3.63
2022-08-11T13:47:08.776Z,2.95
2022-08-11T13:49:39.815Z,9.43
2022-08-11T13:52:13.624Z,9.30
2022-08-11T13:54:42.684Z,1.10
2022-08-11T13:58:06.562Z,2.72
2022-08-11T14:00:12.900Z,4.45
2022-08-11T14:02:52.988Z,3.70
2022-08-11T14:05:28.208Z,5.22
2022-08-11T14:08:37.808Z,6.20
2022-08-11T14:12:23.465Z,4.97
2022-08-11T14:14:13.154Z,2.80
2022-08-11T14:16:44.002Z,4.65
2022-08-11T14:19:15.216Z,3.05
2022-08-11T14:22:07.078Z,3.47
2022-08-11T14:24:49.648Z,1.60
2022-08-11T14:28:32.098Z,5.50
2022-08-11T14:30:26.841Z,3.72
2022-08-11T14:32:56.059Z,1.98
2022-08-11T14:35:27.573Z,3.70
2022-08-11T14:37:57.222Z,4.65
2022-08-11T14:40:43.577Z,4.22
2022-08-11T14:44:13.367Z,3.20
2022-08-11T14:46:35.532Z,3.00
2022-08-11T14:49:04.542Z,3.78
2022-08-11T14:51:34.180Z,3.47
2022-08-11T14:54:20.216Z,5.05
2022-08-11T14:56:47.917Z,6.25
2022-08-11T14:59:15.455Z,4.47
2022-08-11T15:02:01.917Z,4.45
2022-08-11T15:04:36.122Z,3.67
2022-08-11T15:07:04.399Z,4.78
2022-08-11T15:12:33.795Z,2.30
2022-08-11T15:15:21.387Z,4.65
2022-08-11T15:17:50.855Z,4.65
2022-08-11T15:20:38.493Z,4.10
2022-08-11T15:23:24.697Z,5.50
2022-08-11T15:26:05.647Z,5.15
2022-08-11T15:28:57.676Z,1.75
2022-08-11T15:31:27.813Z,3.88
2022-08-11T15:34:19.983Z,4.43
2022-08-11T15:37:08.205Z,2.03
2022-08-11T15:40:05.105Z,4.72
2022-08-11T15:42:55.281Z,20.23
2022-08-11T15:45:43.720Z,3.05
2022-08-11T15:48:14.651Z,2.72
2022-08-11T15:50:48.256Z,7.40
2022-08-11T15:53:32.739Z,5.30
2022-08-11T15:56:01.088Z,2.50
2022-08-11T15:59:33.721Z,11.18
2022-08-11T16:02:00.416Z,3.88
2022-08-11T16:04:30.195Z,4.68
2022-08-11T16:07:14.621Z,6.45
2022-08-11T16:09:55.007Z,2.33
2022-08-11T16:12:30.491Z,9.60
2022-08-11T16:15:23.784Z,9.40
2022-08-11T16:17:55.995Z,5.43
2022-08-11T16:20:26.130Z,4.30
2022-08-11T16:23:01.839Z,8.52
2022-08-11T16:27:01.428Z,6.75
2022-08-11T16:28:22.144Z,4.45
2022-08-11T16:30:50.981Z,3.90
2022-08-11T16:33:49.087Z,7.97
2022-08-11T16:36:29.783Z,3.80
2022-08-11T16:38:59.480Z,3.35
2022-08-11T16:41:49.359Z,6.95
2022-08-11T16:44:38.326Z,7.68
2022-08-11T16:47:08.549Z,8.57
2022-08-11T16:49:52.229Z,9.93
2022-08-11T16:52:22.780Z,13.45
2022-08-11T16:54:50.178Z,5.68
2022-08-11T16:57:45.860Z,5.22
2022-08-11T17:00:16.370Z,6.05
2022-08-11T17:03:11.019Z,9.70
2022-08-11T17:06:10.972Z,9.73
2022-08-11T17:09:04.972Z,11.55
2022-08-11T17:12:09.052Z,12.80
2022-08-11T17:14:48.389Z,12.10
2022-08-11T17:17:20.704Z,11.50
2022-08-11T17:20:38.813Z,10.68
2022-08-11T17:23:00.071Z,5.22
2022-08-11T17:25:28.470Z,9.00
2022-08-11T17:27:56.993Z,5.53
2022-08-11T17:30:45.462Z,7.68
2022-08-11T17:33:34.464Z,7.88
2022-08-11T17:36:02.689Z,6.38
2022-08-11T17:38:30.525Z,6.22
2022-08-11T17:41:22.980Z,11.35
2022-08-11T17:44:10.271Z,7.53
2022-08-11T17:47:03.664Z,6.95
2022-08-11T17:49:37.683Z,8.50
2022-08-11T17:52:25.556Z,10.48
2022-08-11T17:55:13.930Z,8.57
2022-08-11T17:58:01.369Z,11.43
2022-08-11T18:00:29.788Z,6.47
2022-08-11T18:03:18.986Z,6.55
2022-08-11T18:05:49.273Z,4.55
2022-08-11T18:08:37.829Z,4.60
2022-08-11T18:12:06.255Z,7.70
2022-08-11T18:14:34.115Z,8.63
2022-08-11T18:17:20.271Z,5.63
2022-08-11T18:20:08.451Z,17.23
2022-08-11T18:23:01.585Z,22.40
2022-08-11T18:25:57.654Z,10.43
2022-08-11T18:28:47.898Z,18.48
2022-08-11T18:31:35.616Z,29.00
2022-08-11T18:34:25.850Z,14.85
2022-08-11T18:37:27.201Z,15.15
2022-08-11T18:40:41.262Z,33.90
2022-08-11T18:43:31.432Z,29.13
2022-08-11T18:46:23.592Z,25.85
2022-08-11T18:49:19.304Z,28.33
2022-08-11T18:52:09.166Z,20.85
2022-08-11T18:54:58.537Z,20.50
2022-08-11T18:57:49.870Z,25.27
2022-08-11T19:03:28.284Z,14.57
2022-08-11T19:06:39.813Z,10.40
2022-08-11T19:09:26.400Z,10.52
2022-08-11T19:12:15.527Z,6.55
2022-08-11T19:15:03.294Z,5.30
2022-08-11T19:17:51.029Z,6.13
2022-08-11T19:20:40.545Z,12.88
2022-08-11T19:23:28.616Z,11.05
2022-08-11T19:26:17.226Z,10.55
2022-08-11T19:29:06.625Z,11.02
2022-08-11T19:31:53.676Z,10.45
2022-08-11T19:34:41.967Z,5.90
2022-08-11T19:37:29.234Z,7.22
2022-08-11T19:40:20.560Z,8.23
2022-08-11T19:43:23.682Z,8.40
2022-08-11T19:46:15.909Z,8.10
2022-08-11T19:49:03.958Z,4.35
2022-08-11T19:51:54.215Z,4.15
2022-08-11T19:54:45.461Z,6.55
2022-08-11T19:57:39.308Z,9.20
2022-08-11T20:00:33.397Z,8.27
2022-08-11T20:03:22.295Z,7.35
2022-08-11T20:06:09.511Z,6.63
2022-08-11T20:08:59.890Z,5.05
2022-08-11T20:11:50.886Z,8.63
2022-08-11T20:14:39.543Z,6.18
2022-08-11T20:17:30.057Z,2.25
2022-08-11T20:20:18.101Z,5.65
2022-08-11T20:23:08.198Z,5.10
2022-08-11T20:26:03.437Z,14.75
2022-08-11T20:28:55.553Z,11.13
2022-08-11T20:31:42.172Z,7.10
2022-08-11T20:34:29.993Z,5.95
2022-08-11T20:37:20.148Z,22.25
2022-08-11T20:40:08.662Z,27.02
2022-08-11T20:42:55.610Z,23.58
2022-08-11T20:45:52.118Z,11.15
2022-08-11T20:48:45.626Z,5.03
2022-08-11T20:51:38.581Z,5.47
2022-08-11T20:54:38.313Z,7.25
2022-08-11T21:00:39.269Z,5.50
2022-08-11T21:03:35.509Z,3.50
2022-08-11T21:06:26.251Z,4.30
2022-08-11T21:09:20.289Z,3.95
2022-08-11T21:12:07.758Z,7.10
2022-08-11T21:14:59.705Z,11.68
2022-08-11T21:18:00.695Z,19.75
2022-08-11T21:20:55.764Z,17.17
2022-08-11T21:23:43.218Z,13.02
2022-08-11T21:26:32.663Z,37.20
2022-08-11T21:29:19.377Z,50.60
2022-08-11T21:32:06.730Z,47.08
2022-08-11T21:34:53.993Z,34.60
2022-08-11T21:37:41.494Z,34.30
2022-08-11T21:40:29.187Z,47.75
2022-08-11T21:43:16.943Z,8.38
2022-08-11T21:46:02.850Z,6.43
2022-08-11T21:48:50.359Z,24.90
2022-08-11T21:51:36.126Z,42.85
2022-08-11T21:54:22.936Z,15.38
2022-08-11T21:57:09.340Z,13.88
2022-08-11T22:00:11.704Z,11.38
2022-08-11T22:02:58.370Z,12.00
2022-08-11T22:05:49.384Z,29.65
2022-08-11T22:08:35.637Z,42.60
2022-08-11T22:11:32.203Z,19.85
2022-08-11T22:14:23.422Z,5.55
2022-08-11T22:17:09.997Z,7.55
2022-08-11T22:19:57.850Z,12.73
2022-08-11T22:22:52.345Z,11.50
2022-08-11T22:25:53.695Z,11.60
2022-08-11T22:28:41.909Z,10.68
2022-08-11T22:31:29.857Z,20.40
2022-08-11T22:34:15.956Z,8.27
2022-08-11T22:37:03.182Z,7.43
2022-08-11T22:40:01.603Z,9.98
2022-08-11T22:42:51.327Z,25.63
2022-08-11T22:45:38.827Z,18.25
2022-08-11T22:48:26.309Z,9.93
2022-08-11T22:51:13.447Z,18.92
2022-08-11T22:53:59.716Z,7.85
2022-08-11T22:56:48.393Z,10.80
2022-08-11T22:59:36.178Z,18.33
2022-08-11T23:02:24.474Z,17.55
2022-08-11T23:05:10.476Z,8.07
2022-08-11T23:07:57.829Z,13.23
2022-08-11T23:10:44.795Z,6.65
2022-08-11T23:13:31.853Z,10.05
2022-08-11T23:16:18.811Z,17.63
2022-08-11T23:19:06.849Z,21.35
2022-08-11T23:21:53.577Z,13.60
2022-08-11T23:24:40.457Z,7.05
2022-08-11T23:27:27.925Z,18.45
2022-08-11T23:30:19.244Z,15.80
2022-08-11T23:33:09.915Z,62.53
2022-08-11T23:36:03.367Z,70.90
2022-08-11T23:38:51.816Z,45.35
2022-08-11T23:41:38.049Z,24.52
2022-08-11T23:44:25.550Z,29.08
2022-08-11T23:47:13.984Z,23.85
2022-08-11T23:50:00.991Z,11.25
2022-08-11T23:52:47.865Z,17.35
2022-08-11T23:55:33.831Z,21.27
2022-08-11T23:58:20.175Z,8.40
